Time;durP1;ratioP1;P1;durP2;ratioP2;P2;SDS_P1;SDS_P2;PMS_P1;PMS_P2;Temp;Humidity;BMP_temperature;BMP_pressure;BME280_temperature;BME280_humidity;BME280_pressure;Samples;Min_cycle;Max_cycle;Signal;HPM_P1;HPM_P2
2021/08/16 00:01:58;;;;;;;24.60;4.53;;;17.80;99.90;;;;;;4986792;28;25057;-61
2021/08/16 00:04:24;;;;;;;23.33;4.55;;;17.80;99.90;;;;;;4989976;28;25097;-64
2021/08/16 00:06:49;;;;;;;28.42;4.43;;;17.80;99.90;;;;;;4985804;28;25083;-63
2021/08/16 00:09:15;;;;;;;27.00;4.65;;;17.80;99.90;;;;;;4990193;28;25075;-61
2021/08/16 00:11:40;;;;;;;31.92;4.38;;;17.80;99.90;;;;;;4997449;28;25133;-63
2021/08/16 00:14:06;;;;;;;25.48;4.93;;;17.80;99.90;;;;;;4987076;28;25113;-62
2021/08/16 00:16:33;;;;;;;29.88;4.50;;;17.80;99.90;;;;;;4991630;28;25061;-62
2021/08/16 00:18:59;;;;;;;28.75;4.70;;;17.80;99.90;;;;;;4984691;28;25070;-61
2021/08/16 00:21:24;;;;;;;28.30;4.70;;;17.90;99.90;;;;;;4989456;28;25069;-62
2021/08/16 00:23:50;;;;;;;26.58;4.82;;;18.00;99.90;;;;;;4989736;28;25142;-62
2021/08/16 00:26:16;;;;;;;23.33;4.75;;;18.00;99.90;;;;;;4989832;28;25082;-62
2021/08/16 00:28:41;;;;;;;21.52;4.38;;;18.00;99.90;;;;;;4988661;28;25085;-62
2021/08/16 00:31:07;;;;;;;25.35;4.53;;;18.00;99.90;;;;;;4991267;28;25071;-61
2021/08/16 00:33:33;;;;;;;31.00;4.53;;;18.00;99.90;;;;;;4971716;28;25104;-61
2021/08/16 00:36:00;;;;;;;25.45;3.97;;;18.00;99.90;;;;;;4986925;28;25130;-63
2021/08/16 00:38:26;;;;;;;39.47;5.47;;;18.10;99.90;;;;;;4977029;28;25086;-62
2021/08/16 00:40:52;;;;;;;29.95;4.68;;;18.00;99.90;;;;;;4991786;28;25078;-62
2021/08/16 00:43:17;;;;;;;33.22;4.90;;;18.10;99.90;;;;;;4985741;28;25096;-61
2021/08/16 00:45:43;;;;;;;15.10;4.22;;;18.00;99.90;;;;;;4988306;28;25075;-63
2021/08/16 00:48:09;;;;;;;31.77;5.10;;;17.90;99.90;;;;;;4971795;28;25047;-62
2021/08/16 00:50:35;;;;;;;24.00;4.32;;;17.90;99.90;;;;;;4989748;28;25083;-62
2021/08/16 00:53:01;;;;;;;27.10;4.45;;;17.90;99.90;;;;;;4989738;28;25064;-61
2021/08/16 00:55:28;;;;;;;29.70;5.03;;;17.90;99.90;;;;;;4990111;28;25057;-62
2021/08/16 00:57:54;;;;;;;24.80;4.65;;;17.90;99.90;;;;;;4988703;28;25156;-62
2021/08/16 01:00:20;;;;;;;21.83;4.28;;;17.90;99.90;;;;;;4988315;28;25117;-61
2021/08/16 01:02:47;;;;;;;25.05;3.70;;;17.90;99.90;;;;;;4988633;28;25070;-62
2021/08/16 01:05:14;;;;;;;20.30;4.53;;;18.00;99.90;;;;;;4988321;28;25136;-62
2021/08/16 01:07:48;;;;;;;30.27;4.22;;;17.90;99.90;;;;;;4990176;28;25095;-62
2021/08/16 01:10:18;;;;;;;26.13;4.43;;;17.90;99.90;;;;;;4987875;28;25139;-61
2021/08/16 01:12:44;;;;;;;22.73;4.57;;;17.90;99.90;;;;;;4985340;28;25053;-62
2021/08/16 01:15:12;;;;;;;19.50;3.83;;;17.90;99.90;;;;;;4980134;28;25142;-61
2021/08/16 01:17:42;;;;;;;23.25;4.45;;;18.00;99.90;;;;;;4985852;28;25098;-62
2021/08/16 01:20:10;;;;;;;21.98;3.75;;;17.90;99.90;;;;;;4989498;28;25053;-64
2021/08/16 01:22:37;;;;;;;25.15;4.93;;;18.00;99.90;;;;;;5005402;28;25133;-61
2021/08/16 01:25:04;;;;;;;22.48;3.53;;;18.10;99.90;;;;;;4995305;28;25125;-62
2021/08/16 01:27:29;;;;;;;21.85;3.72;;;18.10;99.90;;;;;;4997558;28;25101;-60
2021/08/16 01:29:57;;;;;;;20.48;4.50;;;18.10;99.90;;;;;;4989046;28;25116;-63
2021/08/16 01:32:22;;;;;;;17.77;3.28;;;18.10;99.90;;;;;;4994647;28;25058;-61
2021/08/16 01:34:48;;;;;;;24.25;4.15;;;18.20;99.90;;;;;;4993176;28;25066;-62
2021/08/16 01:37:14;;;;;;;16.05;3.42;;;18.10;99.90;;;;;;4973576;28;25111;-62
2021/08/16 01:39:39;;;;;;;24.55;3.22;;;18.10;99.90;;;;;;4988011;28;25053;-62
2021/08/16 01:42:05;;;;;;;16.25;3.50;;;18.20;99.90;;;;;;4994808;28;25058;-60
2021/08/16 01:44:30;;;;;;;20.92;3.75;;;18.20;99.90;;;;;;4971336;28;25138;-62
2021/08/16 01:46:56;;;;;;;17.85;3.53;;;18.10;99.90;;;;;;4986454;28;25134;-61
2021/08/16 01:49:22;;;;;;;20.70;3.65;;;18.10;99.90;;;;;;4986749;28;25073;-63
2021/08/16 01:51:48;;;;;;;17.67;3.55;;;18.20;99.90;;;;;;5002258;22;25074;-70
2021/08/16 01:54:15;;;;;;;13.80;3.20;;;18.20;99.90;;;;;;5004511;28;25060;-69
2021/08/16 01:56:41;;;;;;;20.67;3.85;;;18.30;99.90;;;;;;5006314;28;25070;-69
2021/08/16 01:59:07;;;;;;;15.95;3.08;;;18.20;99.90;;;;;;5006908;28;25076;-70
2021/08/16 02:01:33;;;;;;;13.93;3.58;;;18.20;99.90;;;;;;5006871;28;25144;-70
2021/08/16 02:03:59;;;;;;;24.48;3.40;;;18.20;99.90;;;;;;5005616;28;25068;-72
2021/08/16 02:06:24;;;;;;;21.00;3.50;;;18.30;99.90;;;;;;5004989;28;25100;-68
2021/08/16 02:08:50;;;;;;;15.43;3.13;;;18.30;99.90;;;;;;5003687;28;25057;-69
2021/08/16 02:11:16;;;;;;;21.30;3.40;;;18.20;99.90;;;;;;5005640;28;25058;-69
2021/08/16 02:13:41;;;;;;;15.93;3.13;;;18.20;99.90;;;;;;5003830;28;25081;-70
2021/08/16 02:16:07;;;;;;;17.85;3.22;;;18.20;99.90;;;;;;5002575;28;25099;-71
2021/08/16 02:18:33;;;;;;;14.20;3.47;;;18.20;99.90;;;;;;5005260;28;25078;-69
2021/08/16 02:20:58;;;;;;;19.10;3.10;;;18.20;99.90;;;;;;5005040;28;25070;-71
2021/08/16 02:23:24;;;;;;;20.10;3.80;;;18.30;99.90;;;;;;5005455;28;25066;-71
2021/08/16 02:25:50;;;;;;;25.77;3.30;;;18.20;99.90;;;;;;5007577;28;25077;-72
2021/08/16 02:28:16;;;;;;;23.30;4.05;;;18.20;99.90;;;;;;5006704;28;25148;-70
2021/08/16 02:30:47;;;;;;;13.57;3.47;;;18.30;99.90;;;;;;5007883;28;25080;-72
2021/08/16 02:33:14;;;;;;;20.58;3.58;;;18.20;99.90;;;;;;4997899;28;25149;-71
2021/08/16 02:35:44;;;;;;;14.13;3.10;;;18.10;99.90;;;;;;5013347;28;25062;-71
2021/08/16 02:38:11;;;;;;;21.17;3.47;;;18.20;99.90;;;;;;5007785;28;25075;-69
2021/08/16 02:40:36;;;;;;;17.17;2.72;;;18.20;99.90;;;;;;5006589;28;25056;-70
2021/08/16 02:43:02;;;;;;;20.05;3.42;;;18.10;99.90;;;;;;5004280;28;25056;-70
2021/08/16 02:45:28;;;;;;;22.80;3.17;;;18.10;99.90;;;;;;5007245;28;25098;-70
2021/08/16 02:47:54;;;;;;;15.68;2.88;;;18.10;99.90;;;;;;5004248;28;25079;-71
2021/08/16 02:50:20;;;;;;;17.17;3.55;;;18.10;99.90;;;;;;5003724;28;25088;-71
2021/08/16 02:52:46;;;;;;;20.23;3.65;;;18.20;99.90;;;;;;5005057;28;25076;-71
2021/08/16 02:55:12;;;;;;;17.85;3.53;;;18.20;99.90;;;;;;5004194;28;25062;-71
2021/08/16 02:57:37;;;;;;;15.73;3.17;;;18.20;99.90;;;;;;4995106;28;25063;-70
2021/08/16 03:00:05;;;;;;;17.27;3.47;;;18.10;99.90;;;;;;5004023;28;25055;-71
2021/08/16 03:02:30;;;;;;;18.85;3.83;;;18.10;99.90;;;;;;4986404;28;25050;-70
2021/08/16 03:04:56;;;;;;;18.80;3.67;;;18.10;99.90;;;;;;5008197;28;25127;-72
2021/08/16 03:07:22;;;;;;;16.58;3.45;;;18.10;99.90;;;;;;5004753;28;25131;-70
2021/08/16 03:09:48;;;;;;;14.27;2.83;;;18.10;99.90;;;;;;5005250;28;25066;-71
2021/08/16 03:12:14;;;;;;;10.43;2.70;;;18.10;99.90;;;;;;5006152;28;25116;-70
2021/08/16 03:14:39;;;;;;;14.93;3.20;;;18.10;99.90;;;;;;5006158;28;25075;-70
2021/08/16 03:17:05;;;;;;;16.77;3.08;;;18.10;99.90;;;;;;5004471;28;25070;-70
2021/08/16 03:19:31;;;;;;;23.55;3.63;;;18.20;99.90;;;;;;5002993;28;25114;-71
2021/08/16 03:21:57;;;;;;;15.45;2.75;;;18.20;99.90;;;;;;5005247;28;25137;-70
2021/08/16 03:24:23;;;;;;;17.33;2.83;;;18.10;99.90;;;;;;4986542;28;25071;-71
2021/08/16 03:26:49;;;;;;;26.08;3.15;;;18.10;99.90;;;;;;5003934;28;25160;-70
2021/08/16 03:29:15;;;;;;;14.50;3.05;;;18.10;99.90;;;;;;5003919;28;25060;-70
2021/08/16 03:31:40;;;;;;;21.58;3.50;;;18.20;99.90;;;;;;5003155;28;25128;-69
2021/08/16 03:34:06;;;;;;;21.80;3.55;;;18.20;99.90;;;;;;5003795;28;25076;-70
2021/08/16 03:36:32;;;;;;;25.90;3.20;;;18.20;99.90;;;;;;5004194;28;25063;-71
2021/08/16 03:38:58;;;;;;;12.38;2.90;;;18.10;99.90;;;;;;4985604;28;25143;-70
2021/08/16 03:41:23;;;;;;;17.27;3.08;;;18.20;99.90;;;;;;5003002;28;25071;-72
2021/08/16 03:43:49;;;;;;;17.42;2.83;;;18.10;99.90;;;;;;5004257;28;25112;-71
2021/08/16 03:46:14;;;;;;;13.18;2.70;;;18.10;99.90;;;;;;5005833;28;25101;-71
2021/08/16 03:48:40;;;;;;;14.88;2.55;;;18.10;99.90;;;;;;5006504;28;25068;-70
2021/08/16 03:51:06;;;;;;;11.15;2.97;;;18.10;99.90;;;;;;5006148;28;25160;-70
2021/08/16 03:53:31;;;;;;;17.88;2.80;;;18.10;99.90;;;;;;5006827;28;25064;-70
2021/08/16 03:55:57;;;;;;;14.48;2.72;;;18.10;99.90;;;;;;5008602;28;25107;-71
2021/08/16 03:58:22;;;;;;;13.55;2.70;;;18.10;99.90;;;;;;5007113;28;25082;-69
2021/08/16 04:00:48;;;;;;;19.98;3.38;;;18.10;99.90;;;;;;5007436;28;25055;-71
2021/08/16 04:03:14;;;;;;;13.77;2.72;;;18.10;99.90;;;;;;5009645;28;25090;-70
2021/08/16 04:05:40;;;;;;;16.10;2.95;;;18.10;99.90;;;;;;5008832;28;25059;-70
2021/08/16 04:08:06;;;;;;;16.83;3.25;;;18.00;99.90;;;;;;5008997;28;25070;-70
2021/08/16 04:10:31;;;;;;;15.98;3.38;;;18.00;99.90;;;;;;5008333;28;25082;-70
2021/08/16 04:12:57;;;;;;;12.82;2.95;;;18.00;99.90;;;;;;5012673;28;25120;-71
2021/08/16 04:15:23;;;;;;;17.48;3.05;;;18.00;99.90;;;;;;5013437;28;25151;-70
2021/08/16 04:17:49;;;;;;;14.80;3.13;;;18.00;99.90;;;;;;5013710;28;25171;-70
2021/08/16 04:20:17;;;;;;;12.13;3.47;;;18.10;99.90;;;;;;5012424;28;25085;-72
2021/08/16 04:22:43;;;;;;;14.80;3.88;;;18.10;99.90;;;;;;5012284;28;25056;-72
2021/08/16 04:25:11;;;;;;;21.48;3.63;;;18.00;99.90;;;;;;5019724;28;25095;-69
2021/08/16 04:27:39;;;;;;;21.38;3.47;;;18.00;99.90;;;;;;5014603;28;25064;-69
2021/08/16 04:30:05;;;;;;;20.77;4.82;;;18.00;99.90;;;;;;5013918;28;25082;-71
2021/08/16 04:32:31;;;;;;;16.00;3.70;;;18.00;99.90;;;;;;5015059;28;25047;-70
2021/08/16 04:34:56;;;;;;;19.45;4.53;;;18.00;99.90;;;;;;5010401;28;25060;-69
2021/08/16 04:37:22;;;;;;;17.08;4.25;;;18.00;99.90;;;;;;5012265;28;25068;-71
2021/08/16 04:39:48;;;;;;;21.50;4.38;;;17.80;99.90;;;;;;5009623;28;25072;-70
2021/08/16 04:42:13;;;;;;;29.48;4.30;;;17.70;99.90;;;;;;5003056;28;25127;-70
2021/08/16 04:44:39;;;;;;;21.25;4.40;;;17.80;99.90;;;;;;5010352;28;25064;-71
2021/08/16 04:47:04;;;;;;;17.40;4.35;;;17.80;99.90;;;;;;5009344;28;25201;-70
2021/08/16 04:49:30;;;;;;;26.08;4.53;;;17.80;99.90;;;;;;5008827;28;25059;-72
2021/08/16 04:51:55;;;;;;;24.55;4.70;;;17.80;99.90;;;;;;5010929;28;25122;-70
2021/08/16 04:54:21;;;;;;;21.80;5.07;;;17.80;99.90;;;;;;5017869;28;25050;-69
2021/08/16 04:56:47;;;;;;;28.63;4.32;;;17.60;99.90;;;;;;5015600;28;25125;-71
2021/08/16 04:59:12;;;;;;;17.35;4.25;;;17.50;99.90;;;;;;5018076;28;25068;-71
2021/08/16 05:01:38;;;;;;;18.92;4.75;;;17.60;99.90;;;;;;5017528;28;25083;-70
2021/08/16 05:04:04;;;;;;;19.88;5.00;;;17.50;99.90;;;;;;5009527;28;25105;-71
2021/08/16 05:06:32;;;;;;;19.40;6.18;;;17.50;99.90;;;;;;5009611;28;25065;-71
2021/08/16 05:09:02;;;;;;;22.10;6.00;;;17.40;99.90;;;;;;5006853;28;25063;-70
2021/08/16 05:11:29;;;;;;;23.17;5.03;;;17.30;99.90;;;;;;5006061;28;25063;-71
2021/08/16 05:13:55;;;;;;;20.40;5.57;;;17.40;99.90;;;;;;5007619;28;25092;-72
2021/08/16 05:16:25;;;;;;;18.45;6.28;;;17.30;99.90;;;;;;5007013;28;25078;-71
2021/08/16 05:18:52;;;;;;;19.02;5.45;;;17.30;99.90;;;;;;5006356;28;25083;-71
2021/08/16 05:21:19;;;;;;;17.38;5.13;;;17.20;99.90;;;;;;5005611;28;25104;-71
2021/08/16 05:23:45;;;;;;;17.58;6.18;;;17.20;99.90;;;;;;5006210;28;25137;-69
2021/08/16 05:26:10;;;;;;;20.58;5.47;;;17.10;99.90;;;;;;4998209;28;25075;-70
2021/08/16 05:28:36;;;;;;;22.25;5.88;;;17.20;99.90;;;;;;5014285;28;25097;-70
2021/08/16 05:31:02;;;;;;;20.13;6.30;;;17.20;99.90;;;;;;5016745;28;25066;-70
2021/08/16 05:33:27;;;;;;;30.85;7.85;;;17.20;99.90;;;;;;5017375;28;25071;-72
2021/08/16 05:35:53;;;;;;;28.98;8.48;;;17.30;99.90;;;;;;5013272;28;25066;-72
2021/08/16 05:38:19;;;;;;;29.38;7.50;;;17.20;99.90;;;;;;5007757;28;25111;-73
2021/08/16 05:40:45;;;;;;;20.80;4.25;;;17.20;99.90;;;;;;5007080;28;25065;-73
2021/08/16 05:43:10;;;;;;;10.45;3.25;;;17.00;99.90;;;;;;5006760;28;25053;-72
2021/08/16 05:45:36;;;;;;;6.70;2.65;;;16.80;99.90;;;;;;5007394;28;25167;-72
2021/08/16 05:48:01;;;;;;;7.38;2.90;;;16.70;99.90;;;;;;4986747;28;25068;-72
2021/08/16 05:50:27;;;;;;;10.57;3.00;;;16.70;99.90;;;;;;5004628;28;25100;-73
2021/08/16 05:52:53;;;;;;;8.55;2.22;;;16.70;99.90;;;;;;5006310;28;25074;-71
2021/08/16 05:55:19;;;;;;;7.75;2.28;;;16.70;99.90;;;;;;5005807;28;25130;-69
2021/08/16 05:57:45;;;;;;;10.00;2.22;;;16.70;99.90;;;;;;5003202;28;25061;-70
2021/08/16 06:00:12;;;;;;;5.68;2.40;;;16.60;99.90;;;;;;5005640;28;25078;-71
2021/08/16 06:02:38;;;;;;;5.50;2.60;;;16.60;99.90;;;;;;5008944;28;25069;-71
2021/08/16 06:05:05;;;;;;;8.38;3.33;;;16.60;99.90;;;;;;5004268;28;25109;-72
2021/08/16 06:07:30;;;;;;;8.27;3.47;;;16.60;99.90;;;;;;5004624;28;25058;-71
2021/08/16 06:09:56;;;;;;;5.43;2.95;;;16.60;99.90;;;;;;5003996;28;25060;-70
2021/08/16 06:12:22;;;;;;;7.35;3.53;;;16.60;99.90;;;;;;5004452;28;25082;-71
2021/08/16 06:14:47;;;;;;;15.50;4.22;;;16.60;99.90;;;;;;5005022;28;25094;-71
2021/08/16 06:17:13;;;;;;;5.70;3.47;;;16.70;99.90;;;;;;5003611;28;25139;-70
2021/08/16 06:19:39;;;;;;;17.02;3.78;;;16.70;99.90;;;;;;5012154;28;25093;-71
2021/08/16 06:22:05;;;;;;;9.85;3.53;;;16.80;99.90;;;;;;5005950;28;25085;-71
2021/08/16 06:24:33;;;;;;;7.07;2.95;;;16.80;99.90;;;;;;5004168;28;25062;-71
2021/08/16 06:26:58;;;;;;;8.00;3.63;;;16.80;99.90;;;;;;5008099;28;25064;-70
2021/08/16 06:29:24;;;;;;;6.43;2.75;;;16.60;99.90;;;;;;5002707;28;25152;-70
2021/08/16 06:31:49;;;;;;;10.30;3.05;;;16.60;99.90;;;;;;5003908;28;25070;-70
2021/08/16 06:34:15;;;;;;;12.23;3.85;;;16.60;99.90;;;;;;5003739;28;25075;-70
2021/08/16 06:36:43;;;;;;;6.13;2.83;;;16.70;99.90;;;;;;5002914;28;24678;-71
2021/08/16 06:39:21;;;;;;;8.52;3.40;;;16.80;99.90;;;;;;5003491;28;25079;-72
2021/08/16 06:41:52;;;;;;;8.35;3.38;;;16.70;99.90;;;;;;4994662;28;25054;-71
2021/08/16 06:44:20;;;;;;;9.55;3.58;;;16.70;99.90;;;;;;4988316;28;25072;-71
2021/08/16 06:46:46;;;;;;;10.95;3.25;;;16.70;99.90;;;;;;5005766;28;25064;-71
2021/08/16 06:49:12;;;;;;;14.05;3.35;;;16.60;99.90;;;;;;5006156;28;25085;-72
2021/08/16 06:51:38;;;;;;;6.22;3.08;;;16.70;99.90;;;;;;5007134;28;25082;-70
2021/08/16 06:54:04;;;;;;;12.35;4.00;;;16.70;99.90;;;;;;5005095;28;25129;-73
2021/08/16 06:56:29;;;;;;;7.32;2.65;;;16.60;99.90;;;;;;5008625;28;25161;-70
2021/08/16 06:58:55;;;;;;;6.40;3.08;;;16.50;99.90;;;;;;5008862;28;25045;-71
2021/08/16 07:01:26;;;;;;;12.00;3.53;;;16.40;99.90;;;;;;5006045;28;25054;-70
2021/08/16 07:03:53;;;;;;;8.40;3.40;;;16.40;99.90;;;;;;5006049;28;25136;-70
2021/08/16 07:06:19;;;;;;;15.02;4.43;;;16.30;99.90;;;;;;5005604;28;25066;-71
2021/08/16 07:08:44;;;;;;;7.65;3.60;;;16.30;99.90;;;;;;5006259;28;25064;-71
2021/08/16 07:11:10;;;;;;;13.57;4.68;;;16.20;99.90;;;;;;5005144;28;25102;-70
2021/08/16 07:13:35;;;;;;;7.38;4.57;;;16.20;99.90;;;;;;5005395;28;25073;-72
2021/08/16 07:16:01;;;;;;;13.05;4.25;;;16.20;99.90;;;;;;5005362;28;25081;-72
2021/08/16 07:18:27;;;;;;;8.90;4.65;;;16.20;99.90;;;;;;5005641;28;25140;-72
2021/08/16 07:20:52;;;;;;;8.13;4.07;;;16.10;99.90;;;;;;4986695;28;25121;-70
2021/08/16 07:23:18;;;;;;;10.40;4.70;;;16.00;99.90;;;;;;5003791;28;25073;-71
2021/08/16 07:25:43;;;;;;;9.77;4.45;;;16.00;99.90;;;;;;5005073;28;25155;-69
2021/08/16 07:28:09;;;;;;;8.70;4.18;;;15.80;99.90;;;;;;5008358;28;25070;-72
2021/08/16 07:30:35;;;;;;;10.05;4.57;;;15.80;99.90;;;;;;5013214;28;25124;-73
2021/08/16 07:33:01;;;;;;;11.27;4.85;;;15.80;99.90;;;;;;5005397;28;25086;-73
2021/08/16 07:35:26;;;;;;;12.07;4.75;;;15.80;99.90;;;;;;5004727;28;25106;-71
2021/08/16 07:37:52;;;;;;;6.95;3.85;;;15.80;99.90;;;;;;5003574;28;25056;-71
2021/08/16 07:40:20;;;;;;;13.27;4.45;;;15.80;99.90;;;;;;4986944;28;25109;-71
2021/08/16 07:42:46;;;;;;;9.52;5.10;;;15.80;99.90;;;;;;5004616;28;25149;-72
2021/08/16 07:45:12;;;;;;;18.33;4.60;;;15.90;99.90;;;;;;4988889;28;25164;-70
2021/08/16 07:47:37;;;;;;;9.90;4.07;;;15.90;99.90;;;;;;4985899;28;25071;-68
2021/08/16 07:50:07;;;;;;;11.70;4.20;;;16.00;99.90;;;;;;4986397;28;25063;-72
2021/08/16 07:52:35;;;;;;;11.13;4.82;;;16.00;99.90;;;;;;5009411;22;25062;-59
2021/08/16 07:55:00;;;;;;;14.57;4.07;;;16.20;99.90;;;;;;5006048;28;25107;-59
2021/08/16 07:57:26;;;;;;;16.25;4.95;;;16.20;99.90;;;;;;5006065;28;25098;-58
2021/08/16 07:59:51;;;;;;;12.95;4.75;;;16.20;99.90;;;;;;5005721;28;25075;-60
2021/08/16 08:02:17;;;;;;;11.20;4.60;;;16.10;99.90;;;;;;5005888;28;25063;-60
2021/08/16 08:04:42;;;;;;;14.88;5.32;;;16.20;99.90;;;;;;5005977;28;25143;-59
2021/08/16 08:07:08;;;;;;;19.63;4.57;;;16.30;99.90;;;;;;5005261;28;25053;-60
2021/08/16 08:09:33;;;;;;;13.35;4.32;;;16.30;99.90;;;;;;5006556;28;25068;-58
2021/08/16 08:11:59;;;;;;;11.98;4.32;;;16.20;99.90;;;;;;5001656;28;25121;-56
2021/08/16 08:14:25;;;;;;;12.48;4.57;;;16.30;99.90;;;;;;5003850;28;25071;-59
2021/08/16 08:16:51;;;;;;;10.43;4.82;;;16.30;99.90;;;;;;5005731;28;25117;-59
2021/08/16 08:19:16;;;;;;;22.00;4.97;;;16.30;99.90;;;;;;5005926;28;25123;-60
2021/08/16 08:21:42;;;;;;;29.45;5.03;;;16.30;99.90;;;;;;5005705;28;25162;-59
2021/08/16 08:24:08;;;;;;;11.02;4.80;;;16.20;99.90;;;;;;5006163;28;25082;-59
2021/08/16 08:26:33;;;;;;;13.63;4.30;;;16.20;99.90;;;;;;5006703;28;25094;-60
2021/08/16 08:28:59;;;;;;;11.90;4.63;;;16.10;99.90;;;;;;5003886;28;25074;-60
2021/08/16 08:31:26;;;;;;;17.00;4.75;;;16.20;99.90;;;;;;4999850;28;25100;-60
2021/08/16 08:33:52;;;;;;;16.45;5.25;;;16.20;99.90;;;;;;4990555;28;25075;-61
2021/08/16 08:36:18;;;;;;;17.08;4.88;;;16.20;99.90;;;;;;5009008;28;25061;-59
2021/08/16 08:38:43;;;;;;;13.60;4.68;;;16.20;99.90;;;;;;4996885;28;25097;-60
2021/08/16 08:41:13;;;;;;;14.18;4.95;;;16.30;99.90;;;;;;5004606;28;25069;-61
2021/08/16 08:43:40;;;;;;;14.30;5.57;;;16.30;99.90;;;;;;5006185;28;25060;-60
2021/08/16 08:46:05;;;;;;;27.10;4.75;;;16.30;99.90;;;;;;5009181;28;25089;-59
2021/08/16 08:48:31;;;;;;;13.10;4.20;;;16.30;99.90;;;;;;5001509;28;25065;-59
2021/08/16 08:50:59;;;;;;;12.93;4.47;;;16.30;99.90;;;;;;4983788;28;25105;-61
2021/08/16 08:53:24;;;;;;;15.85;5.10;;;16.30;99.90;;;;;;5009375;28;25050;-60
2021/08/16 08:55:50;;;;;;;11.82;4.65;;;16.40;99.90;;;;;;5001934;28;25070;-61
2021/08/16 08:58:18;;;;;;;12.65;4.40;;;16.40;99.90;;;;;;5008700;28;25100;-60
2021/08/16 09:00:44;;;;;;;16.38;5.18;;;16.50;99.90;;;;;;5001307;28;25058;-59
2021/08/16 09:03:09;;;;;;;12.35;5.30;;;16.60;99.90;;;;;;5009278;28;25151;-60
2021/08/16 09:05:53;;;;;;;12.18;5.07;;;16.60;99.90;;;;;;5008769;28;25097;-60
2021/08/16 09:08:33;;;;;;;13.00;5.95;;;16.80;99.90;;;;;;5009352;28;25103;-62
2021/08/16 09:11:12;;;;;;;11.32;4.65;;;16.90;99.90;;;;;;5001830;28;25162;-59
2021/08/16 09:13:52;;;;;;;11.52;5.63;;;17.00;99.90;;;;;;5008973;28;25096;-61
2021/08/16 09:16:17;;;;;;;14.23;5.43;;;17.00;99.90;;;;;;5009086;28;25051;-60
2021/08/16 09:18:43;;;;;;;11.02;5.40;;;16.80;99.90;;;;;;4991225;28;25137;-59
2021/08/16 09:21:11;;;;;;;12.40;5.03;;;16.80;99.90;;;;;;5006534;28;25121;-61
2021/08/16 09:23:47;;;;;;;10.82;5.07;;;16.70;99.90;;;;;;5005547;28;25165;-61
2021/08/16 09:26:16;;;;;;;14.35;6.40;;;16.60;99.90;;;;;;4985208;28;25048;-61
2021/08/16 09:28:41;;;;;;;12.95;5.68;;;16.60;99.90;;;;;;5008702;28;25085;-60
2021/08/16 09:31:16;;;;;;;18.85;6.55;;;16.50;99.90;;;;;;4987202;28;25108;-61
2021/08/16 09:34:08;;;;;;;20.70;5.72;;;16.60;99.90;;;;;;5008097;28;25081;-60
2021/08/16 09:36:36;;;;;;;13.43;5.75;;;16.60;99.90;;;;;;4996372;28;25074;-61
2021/08/16 09:39:02;;;;;;;12.85;5.95;;;16.60;99.90;;;;;;5018517;28;25072;-62
2021/08/16 09:41:28;;;;;;;22.40;8.20;;;16.60;99.90;;;;;;4992649;28;25132;-60
2021/08/16 09:44:07;;;;;;;21.30;8.93;;;16.70;99.90;;;;;;5008454;28;25129;-60
2021/08/16 09:46:33;;;;;;;20.10;7.90;;;16.90;99.90;;;;;;5008808;28;25085;-60
2021/08/16 09:49:02;;;;;;;16.35;7.68;;;16.90;99.90;;;;;;5007459;28;25074;-60
2021/08/16 09:51:29;;;;;;;17.45;8.13;;;17.00;99.90;;;;;;5008136;28;25048;-60
2021/08/16 09:53:54;;;;;;;16.85;8.65;;;17.00;99.90;;;;;;5007746;28;25107;-61
2021/08/16 09:56:21;;;;;;;22.27;8.85;;;16.90;99.90;;;;;;5008673;28;25119;-61
2021/08/16 09:58:48;;;;;;;16.60;8.15;;;16.90;99.90;;;;;;5008209;28;25065;-59
2021/08/16 10:01:13;;;;;;;18.60;7.82;;;16.90;99.90;;;;;;5009628;28;25097;-60
2021/08/16 10:03:40;;;;;;;17.95;9.20;;;17.10;99.90;;;;;;5012963;28;25066;-61
2021/08/16 10:06:08;;;;;;;18.83;9.30;;;17.20;99.90;;;;;;5012925;28;25077;-61
2021/08/16 10:08:54;;;;;;;18.85;8.90;;;17.30;99.90;;;;;;5012827;28;25165;-60
2021/08/16 10:11:21;;;;;;;18.63;8.43;;;17.40;99.90;;;;;;4997548;28;25080;-62
2021/08/16 10:13:52;;;;;;;22.42;9.55;;;17.40;99.90;;;;;;5001177;28;25155;-61
2021/08/16 10:16:31;;;;;;;17.15;9.02;;;17.50;99.90;;;;;;5007960;28;25126;-61
2021/08/16 10:19:08;;;;;;;23.77;9.75;;;17.60;99.90;;;;;;5001977;28;25111;-62
2021/08/16 10:21:37;;;;;;;18.70;9.82;;;17.70;99.90;;;;;;5007406;28;25109;-62
2021/08/16 10:24:14;;;;;;;20.38;8.15;;;17.60;99.90;;;;;;4994118;28;25135;-62
2021/08/16 10:26:39;;;;;;;19.17;7.47;;;17.40;99.90;;;;;;5007995;28;25086;-58
2021/08/16 10:29:06;;;;;;;13.27;7.03;;;17.20;99.90;;;;;;5006934;28;25109;-60
2021/08/16 10:31:37;;;;;;;17.98;7.72;;;17.20;99.90;;;;;;5007319;28;25064;-60
2021/08/16 10:34:04;;;;;;;14.65;6.68;;;17.30;99.90;;;;;;5006743;28;25054;-61
2021/08/16 10:36:31;;;;;;;23.92;7.72;;;17.40;99.90;;;;;;5008184;28;25108;-62
2021/08/16 10:39:00;;;;;;;12.38;6.70;;;17.50;99.90;;;;;;5001385;28;25150;-60
2021/08/16 10:41:42;;;;;;;14.38;6.63;;;17.60;99.90;;;;;;5007427;28;25099;-61
2021/08/16 10:44:16;;;;;;;13.73;5.28;;;17.60;99.90;;;;;;5001155;28;25058;-60
2021/08/16 10:46:45;;;;;;;11.57;6.93;;;17.40;99.90;;;;;;5001542;28;25083;-61
2021/08/16 10:49:13;;;;;;;15.88;6.55;;;17.30;99.90;;;;;;5007149;28;25064;-60
2021/08/16 10:51:46;;;;;;;17.60;6.93;;;17.30;99.90;;;;;;5002036;28;25131;-60
2021/08/16 10:54:30;;;;;;;15.25;6.65;;;17.40;99.90;;;;;;4999332;28;25060;-60
2021/08/16 10:56:57;;;;;;;11.32;6.18;;;17.50;99.90;;;;;;5000771;28;25077;-60
2021/08/16 10:59:27;;;;;;;10.55;6.25;;;17.50;99.90;;;;;;4999397;28;25056;-59
2021/08/16 11:01:55;;;;;;;20.45;7.07;;;17.50;99.90;;;;;;5000278;28;25110;-60
2021/08/16 11:04:28;;;;;;;13.80;6.07;;;17.50;99.90;;;;;;4992337;28;25078;-60
2021/08/16 11:06:56;;;;;;;15.60;6.20;;;17.50;99.90;;;;;;4999552;28;25064;-60
2021/08/16 11:09:26;;;;;;;14.32;5.85;;;17.40;99.90;;;;;;5006879;28;25093;-60
2021/08/16 11:11:54;;;;;;;13.77;6.60;;;17.40;99.90;;;;;;5006944;28;25099;-61
2021/08/16 11:14:24;;;;;;;16.83;6.57;;;17.30;99.90;;;;;;4998889;28;25060;-60
2021/08/16 11:16:53;;;;;;;16.85;7.05;;;17.20;99.90;;;;;;4988686;28;25140;-60
2021/08/16 11:19:20;;;;;;;16.40;7.35;;;16.60;99.90;;;;;;5006375;28;25085;-60
2021/08/16 11:22:12;;;;;;;19.77;8.20;;;15.70;99.90;;;;;;5006691;28;25084;-60
2021/08/16 11:24:40;;;;;;;19.75;7.70;;;15.40;99.90;;;;;;5004594;28;25103;-60
2021/08/16 11:27:09;;;;;;;21.50;7.07;;;15.30;99.90;;;;;;5005958;28;25068;-60
2021/08/16 11:29:35;;;;;;;17.92;7.63;;;15.20;99.90;;;;;;4999058;28;25141;-60
2021/08/16 11:32:03;;;;;;;21.27;8.07;;;15.30;99.90;;;;;;4989235;28;25097;-62
2021/08/16 11:34:31;;;;;;;19.02;7.78;;;15.30;99.90;;;;;;4999365;28;25100;-60
2021/08/16 11:36:58;;;;;;;15.30;7.10;;;15.40;99.90;;;;;;5007929;28;25054;-61
2021/08/16 11:39:28;;;;;;;19.05;6.88;;;15.40;99.90;;;;;;4984882;28;25061;-60
2021/08/16 11:42:01;;;;;;;17.10;7.50;;;15.40;99.90;;;;;;5007788;28;25135;-61
2021/08/16 11:44:28;;;;;;;12.38;6.30;;;15.50;99.90;;;;;;5007958;28;25131;-61
2021/08/16 11:46:57;;;;;;;14.57;6.60;;;15.50;99.90;;;;;;5006299;28;25084;-61
2021/08/16 11:49:26;;;;;;;16.48;6.80;;;15.60;99.90;;;;;;5010720;28;25087;-60
2021/08/16 11:51:53;;;;;;;17.40;6.70;;;15.60;99.90;;;;;;4999768;28;25080;-61
2021/08/16 11:54:33;;;;;;;14.98;7.03;;;15.60;99.90;;;;;;5006764;28;25065;-60
2021/08/16 11:57:01;;;;;;;17.00;7.20;;;15.60;99.90;;;;;;5000675;28;25069;-60
2021/08/16 11:59:27;;;;;;;17.23;7.50;;;15.50;99.90;;;;;;4993830;28;25095;-60
2021/08/16 12:01:55;;;;;;;12.55;6.70;;;15.50;99.90;;;;;;5007183;28;25058;-61
2021/08/16 12:04:22;;;;;;;12.88;7.13;;;15.40;99.90;;;;;;5006325;28;25089;-61
2021/08/16 12:06:49;;;;;;;15.73;7.40;;;15.40;99.90;;;;;;5007462;28;25075;-61
2021/08/16 12:09:16;;;;;;;28.50;9.15;;;15.60;99.90;;;;;;5010480;28;25097;-61
2021/08/16 12:11:42;;;;;;;18.92;8.70;;;15.60;99.90;;;;;;5008589;28;25066;-61
2021/08/16 12:14:07;;;;;;;18.67;7.47;;;15.60;99.90;;;;;;5006624;28;25082;-61
2021/08/16 12:16:35;;;;;;;14.43;7.47;;;15.60;99.90;;;;;;5009901;28;25084;-61
2021/08/16 12:19:02;;;;;;;14.15;7.55;;;15.50;99.90;;;;;;5009236;28;25049;-61
2021/08/16 12:21:27;;;;;;;19.85;7.80;;;15.40;99.90;;;;;;5007020;28;25105;-60
2021/08/16 12:24:06;;;;;;;20.85;7.68;;;15.30;99.90;;;;;;5009275;28;25088;-61
2021/08/16 12:26:37;;;;;;;22.02;6.88;;;15.20;99.90;;;;;;5010060;28;25065;-59
2021/08/16 12:29:14;;;;;;;17.10;6.70;;;15.20;99.90;;;;;;5008967;28;25073;-59
2021/08/16 12:31:40;;;;;;;18.70;4.82;;;15.00;99.90;;;;;;5009166;28;25083;-59
2021/08/16 12:34:08;;;;;;;12.13;3.35;;;15.00;99.90;;;;;;4990007;28;25079;-62
2021/08/16 12:36:36;;;;;;;13.20;3.00;;;15.10;99.90;;;;;;5009493;28;25070;-59
2021/08/16 12:39:11;;;;;;;13.40;3.50;;;15.10;99.90;;;;;;5010052;28;25140;-60